Time;durP1;ratioP1;P1;durP2;ratioP2;P2;SDS_P1;SDS_P2;PMS_P1;PMS_P2;Temp;Humidity;BMP_temperature;BMP_pressure;BME280_temperature;BME280_humidity;BME280_pressure;Samples;Min_cycle;Max_cycle;Signal;HPM_P1;HPM_P2
2021/11/04 00:00:47;;;;;;;6.10;0.82;;;13.80;96.70;;;;;;4916438;28;20058;-79
2021/11/04 00:03:15;;;;;;;4.75;1.38;;;13.80;96.70;;;;;;4943113;28;20067;-79
2021/11/04 00:05:46;;;;;;;4.20;0.82;;;13.80;96.70;;;;;;4936649;28;20046;-79
2021/11/04 00:08:15;;;;;;;5.82;0.60;;;13.80;96.70;;;;;;4938144;28;20039;-79
2021/11/04 00:10:43;;;;;;;4.97;0.82;;;13.80;96.70;;;;;;4937442;28;20051;-79
2021/11/04 00:13:12;;;;;;;5.55;0.88;;;13.80;96.70;;;;;;4940149;28;20078;-79
2021/11/04 00:15:41;;;;;;;3.05;0.60;;;13.80;96.70;;;;;;4936700;28;20059;-79
2021/11/04 00:18:10;;;;;;;3.38;0.80;;;13.80;96.70;;;;;;4940756;28;20398;-79
2021/11/04 00:20:39;;;;;;;5.90;0.82;;;13.80;96.70;;;;;;4935303;28;20118;-80
2021/11/04 00:23:09;;;;;;;2.20;0.65;;;13.70;96.70;;;;;;4930473;28;20042;-81
2021/11/04 00:25:38;;;;;;;3.47;0.40;;;13.60;96.70;;;;;;4934719;28;20051;-80
2021/11/04 00:28:06;;;;;;;3.75;0.60;;;13.60;96.70;;;;;;4935097;28;20039;-80
2021/11/04 00:30:35;;;;;;;5.22;0.70;;;13.60;96.70;;;;;;4935490;28;20035;-80
2021/11/04 00:33:03;;;;;;;4.43;0.50;;;13.50;96.70;;;;;;4938124;28;20047;-79
2021/11/04 00:35:32;;;;;;;4.80;0.55;;;13.50;96.70;;;;;;4939324;28;20322;-79
2021/11/04 00:38:01;;;;;;;3.88;0.50;;;13.50;96.70;;;;;;4916370;28;20087;-80
2021/11/04 00:40:32;;;;;;;1.38;0.32;;;13.40;96.70;;;;;;4938462;28;20484;-80
2021/11/04 00:43:00;;;;;;;3.17;0.82;;;13.40;96.70;;;;;;4943735;28;20039;-80
2021/11/04 00:45:29;;;;;;;5.72;0.77;;;13.40;96.70;;;;;;4932926;28;20043;-80
2021/11/04 00:47:57;;;;;;;3.15;0.38;;;13.40;96.70;;;;;;4937465;28;20610;-80
2021/11/04 00:50:26;;;;;;;2.72;0.45;;;13.30;96.70;;;;;;4922978;28;20060;-80
2021/11/04 00:52:55;;;;;;;1.90;0.20;;;13.30;96.70;;;;;;4940300;28;20568;-80
2021/11/04 00:55:23;;;;;;;2.47;0.50;;;13.30;96.70;;;;;;4936666;28;20116;-80
2021/11/04 00:57:53;;;;;;;2.10;0.30;;;13.30;96.70;;;;;;4924778;28;20043;-80
2021/11/04 01:00:22;;;;;;;2.42;0.40;;;13.30;96.70;;;;;;4933429;28;20985;-80
2021/11/04 01:02:51;;;;;;;4.10;0.63;;;13.30;96.70;;;;;;4938548;28;20464;-79
2021/11/04 01:05:20;;;;;;;1.98;0.10;;;13.30;96.70;;;;;;4939208;28;20046;-80
2021/11/04 01:07:48;;;;;;;2.17;0.45;;;13.30;96.70;;;;;;4935203;28;20052;-80
2021/11/04 01:10:17;;;;;;;3.83;1.40;;;13.40;96.70;;;;;;4938724;28;20042;-80
2021/11/04 01:12:47;;;;;;;4.20;0.50;;;13.30;96.70;;;;;;4938046;28;20520;-80
2021/11/04 01:15:18;;;;;;;3.22;0.70;;;13.30;96.70;;;;;;4938807;28;20552;-80
2021/11/04 01:17:46;;;;;;;2.13;0.30;;;13.40;96.70;;;;;;4934145;28;20071;-80
2021/11/04 01:20:15;;;;;;;2.40;0.40;;;13.40;96.70;;;;;;4915276;28;20035;-80
2021/11/04 01:22:45;;;;;;;1.85;0.50;;;13.50;96.70;;;;;;4935581;28;20043;-80
2021/11/04 01:25:13;;;;;;;4.53;0.55;;;13.50;96.70;;;;;;4936272;28;20055;-81
2021/11/04 01:27:42;;;;;;;4.65;0.73;;;13.50;96.70;;;;;;4938063;28;20078;-80
2021/11/04 01:30:11;;;;;;;3.53;0.45;;;13.50;96.70;;;;;;4938809;28;20115;-80
2021/11/04 01:32:41;;;;;;;1.83;0.22;;;13.50;96.70;;;;;;4938398;28;20581;-80
2021/11/04 01:35:10;;;;;;;2.22;0.30;;;13.50;96.70;;;;;;4935190;28;20043;-80
2021/11/04 01:37:38;;;;;;;2.10;0.30;;;13.60;96.70;;;;;;4923211;29;20438;-78
2021/11/04 01:40:08;;;;;;;7.30;1.35;;;13.60;96.70;;;;;;4921505;28;20050;-76
2021/11/04 01:42:36;;;;;;;3.83;0.63;;;13.70;96.70;;;;;;4936420;28;20497;-77
2021/11/04 01:45:05;;;;;;;3.40;0.70;;;13.70;96.70;;;;;;4934041;28;20039;-78
2021/11/04 01:47:33;;;;;;;4.25;0.75;;;13.70;96.70;;;;;;4935111;28;20051;-78
2021/11/04 01:50:03;;;;;;;5.35;0.50;;;13.80;96.70;;;;;;4943926;28;20504;-78
2021/11/04 01:52:31;;;;;;;4.80;0.50;;;13.80;96.70;;;;;;4938552;28;20154;-78
2021/11/04 01:54:59;;;;;;;4.05;0.50;;;13.90;96.70;;;;;;4941924;28;20071;-78
2021/11/04 01:57:27;;;;;;;2.55;0.50;;;13.90;96.70;;;;;;4916134;28;20055;-78
2021/11/04 01:59:55;;;;;;;4.53;0.63;;;13.90;96.70;;;;;;4938122;28;20471;-77
2021/11/04 02:02:26;;;;;;;3.35;0.82;;;14.00;96.70;;;;;;4938188;28;20760;-78
2021/11/04 02:04:58;;;;;;;5.15;0.70;;;14.10;96.70;;;;;;4937917;28;20051;-78
2021/11/04 02:07:33;;;;;;;4.65;0.68;;;14.20;96.70;;;;;;4934018;28;20390;-78
2021/11/04 02:10:06;;;;;;;3.60;0.40;;;14.30;96.70;;;;;;4940681;28;20066;-77
2021/11/04 02:12:45;;;;;;;5.88;0.63;;;14.30;96.70;;;;;;4942604;28;20502;-81
2021/11/04 02:15:15;;;;;;;3.05;0.55;;;14.20;96.70;;;;;;4913545;28;20119;-79
2021/11/04 02:17:44;;;;;;;4.20;0.40;;;14.20;96.70;;;;;;4917379;29;20044;-79
2021/11/04 02:20:20;;;;;;;6.30;0.68;;;14.20;96.70;;;;;;4919697;28;20054;-79
2021/11/04 02:22:58;;;;;;;4.30;0.57;;;14.20;96.70;;;;;;4939181;28;20096;-79
2021/11/04 02:25:31;;;;;;;3.60;0.63;;;14.20;96.70;;;;;;4921746;28;20094;-80
2021/11/04 02:28:01;;;;;;;7.43;1.05;;;14.20;96.70;;;;;;4943019;28;20118;-79
2021/11/04 02:30:31;;;;;;;6.15;0.82;;;14.10;96.70;;;;;;4939032;28;20075;-79
2021/11/04 02:33:00;;;;;;;7.80;1.33;;;14.10;96.70;;;;;;4944126;28;20043;-79
2021/11/04 02:35:29;;;;;;;5.20;0.80;;;14.10;96.70;;;;;;4938504;28;20528;-80
2021/11/04 02:37:57;;;;;;;7.38;1.48;;;14.20;96.70;;;;;;4934545;28;20074;-79
2021/11/04 02:40:27;;;;;;;5.28;0.80;;;14.20;96.70;;;;;;4940950;28;20501;-79
2021/11/04 02:42:55;;;;;;;6.32;1.20;;;14.20;96.70;;;;;;4939361;28;20119;-80
2021/11/04 02:45:25;;;;;;;5.80;1.00;;;14.10;96.70;;;;;;4947356;28;20079;-80
2021/11/04 02:47:54;;;;;;;11.82;1.58;;;14.20;96.70;;;;;;4932306;28;20059;-80
2021/11/04 02:50:22;;;;;;;11.00;1.00;;;14.20;96.70;;;;;;4936665;28;20480;-80
2021/11/04 02:52:50;;;;;;;6.82;0.88;;;14.20;96.70;;;;;;4942863;28;20044;-80
2021/11/04 02:55:19;;;;;;;4.90;0.57;;;14.30;96.70;;;;;;4934969;28;20130;-81
2021/11/04 02:57:49;;;;;;;5.95;1.08;;;14.30;96.70;;;;;;4922923;28;20048;-80
2021/11/04 03:00:18;;;;;;;9.25;1.13;;;14.30;96.70;;;;;;4939878;28;20039;-79
2021/11/04 03:02:46;;;;;;;4.82;0.88;;;14.30;96.70;;;;;;4927814;29;20125;-79
2021/11/04 03:05:14;;;;;;;5.60;0.95;;;14.20;96.70;;;;;;4945647;28;20036;-80
2021/11/04 03:07:42;;;;;;;6.43;0.80;;;14.20;96.70;;;;;;4929786;28;20055;-79
2021/11/04 03:10:12;;;;;;;5.15;0.98;;;14.20;96.70;;;;;;4940103;28;20039;-79
2021/11/04 03:12:40;;;;;;;6.15;0.85;;;14.20;96.70;;;;;;4937039;28;20055;-80
2021/11/04 03:15:16;;;;;;;7.25;1.25;;;14.20;96.70;;;;;;4939323;28;20044;-79
2021/11/04 03:17:47;;;;;;;6.78;1.63;;;14.20;96.70;;;;;;4936982;28;20531;-80
2021/11/04 03:20:17;;;;;;;7.63;1.00;;;14.20;96.70;;;;;;4938081;28;20121;-80
2021/11/04 03:22:46;;;;;;;5.75;1.08;;;14.20;96.70;;;;;;4937277;28;20182;-79
2021/11/04 03:25:18;;;;;;;6.85;0.98;;;14.20;96.70;;;;;;4918048;28;20048;-80
2021/11/04 03:27:50;;;;;;;6.30;1.05;;;14.10;96.70;;;;;;4926864;28;20062;-79
2021/11/04 03:30:27;;;;;;;4.15;0.77;;;14.10;96.70;;;;;;4945820;28;20115;-79
2021/11/04 03:32:59;;;;;;;10.13;1.20;;;14.10;96.70;;;;;;4933610;28;20069;-80
2021/11/04 03:35:29;;;;;;;6.38;0.93;;;14.10;96.70;;;;;;4942506;28;20043;-79
2021/11/04 03:37:59;;;;;;;9.73;2.25;;;14.10;96.70;;;;;;4939096;28;20052;-79
2021/11/04 03:40:33;;;;;;;6.28;1.08;;;14.10;96.70;;;;;;4941728;28;20036;-80
2021/11/04 03:43:02;;;;;;;6.45;1.20;;;14.10;96.70;;;;;;4941033;28;20651;-79
2021/11/04 03:45:32;;;;;;;8.68;1.13;;;14.10;96.70;;;;;;4934490;28;20050;-79
2021/11/04 03:48:00;;;;;;;5.88;1.00;;;14.10;96.70;;;;;;4939138;28;20330;-79
2021/11/04 03:50:28;;;;;;;5.10;1.00;;;14.20;96.70;;;;;;4937165;28;20864;-79
2021/11/04 03:52:57;;;;;;;4.00;0.77;;;14.20;96.70;;;;;;4942902;28;20575;-79
2021/11/04 03:55:28;;;;;;;7.70;0.82;;;14.20;96.70;;;;;;4935861;28;20039;-79
2021/11/04 03:57:59;;;;;;;6.43;1.00;;;14.10;96.70;;;;;;4936005;28;20507;-79
2021/11/04 04:00:27;;;;;;;4.07;0.90;;;14.10;96.70;;;;;;4942446;28;20141;-80
2021/11/04 04:02:57;;;;;;;5.90;0.98;;;14.10;96.70;;;;;;4943633;28;20055;-79
2021/11/04 04:05:27;;;;;;;4.38;0.65;;;14.10;96.70;;;;;;4932151;28;20043;-80
2021/11/04 04:07:56;;;;;;;5.60;1.33;;;14.00;96.70;;;;;;4937493;28;20048;-80
2021/11/04 04:10:25;;;;;;;6.57;0.82;;;13.90;96.70;;;;;;4936732;28;20674;-80
2021/11/04 04:12:53;;;;;;;5.57;0.93;;;14.00;96.70;;;;;;4936131;28;20045;-78
2021/11/04 04:15:22;;;;;;;7.57;1.10;;;14.00;96.70;;;;;;4936700;28;20047;-79
2021/11/04 04:17:50;;;;;;;3.42;0.68;;;14.10;96.70;;;;;;4935907;28;20063;-79
2021/11/04 04:20:20;;;;;;;7.45;0.98;;;14.10;96.70;;;;;;4923040;28;20044;-79
2021/11/04 04:22:48;;;;;;;3.25;0.60;;;14.20;96.70;;;;;;4941236;28;20052;-79
2021/11/04 04:25:16;;;;;;;3.63;0.90;;;14.20;96.70;;;;;;4941843;28;20621;-79
2021/11/04 04:27:44;;;;;;;8.00;1.33;;;14.20;96.70;;;;;;4933273;28;20150;-79
2021/11/04 04:30:12;;;;;;;6.28;0.80;;;14.20;96.70;;;;;;4933721;28;20330;-78
2021/11/04 04:32:40;;;;;;;4.38;0.80;;;14.20;96.70;;;;;;4942853;28;20043;-78
2021/11/04 04:35:08;;;;;;;7.35;0.95;;;14.30;96.70;;;;;;4924201;29;20047;-78
2021/11/04 04:37:39;;;;;;;9.57;1.63;;;14.30;96.70;;;;;;4948692;28;20600;-79
2021/11/04 04:40:08;;;;;;;7.28;1.20;;;14.30;96.70;;;;;;4936255;28;20074;-79
2021/11/04 04:42:39;;;;;;;8.13;1.00;;;14.40;96.70;;;;;;4935526;28;20593;-79
2021/11/04 04:45:08;;;;;;;8.70;1.33;;;14.30;96.70;;;;;;4938420;28;20078;-79
2021/11/04 04:47:37;;;;;;;6.13;0.73;;;14.30;96.70;;;;;;4941181;28;20549;-78
2021/11/04 04:50:07;;;;;;;4.72;1.00;;;14.30;96.70;;;;;;4939682;28;20044;-79
2021/11/04 04:52:35;;;;;;;7.10;0.88;;;14.30;96.70;;;;;;4945435;28;20043;-79
2021/11/04 04:55:05;;;;;;;3.83;1.00;;;14.30;96.70;;;;;;4938543;28;20050;-79
2021/11/04 04:57:34;;;;;;;4.90;0.90;;;14.30;96.70;;;;;;4935222;28;20043;-79
2021/11/04 05:00:11;;;;;;;4.82;0.73;;;14.40;96.70;;;;;;4928731;28;20421;-78
2021/11/04 05:02:39;;;;;;;4.72;1.00;;;14.40;96.70;;;;;;4926750;28;20067;-80
2021/11/04 05:05:09;;;;;;;4.20;0.52;;;14.40;96.70;;;;;;4940985;28;20044;-79
2021/11/04 05:07:37;;;;;;;6.13;0.80;;;14.40;96.70;;;;;;4921031;28;20054;-79
2021/11/04 05:10:09;;;;;;;6.28;0.73;;;14.30;96.70;;;;;;4930821;28;20043;-79
2021/11/04 05:12:37;;;;;;;5.20;0.73;;;14.40;96.70;;;;;;4936921;28;20049;-79
2021/11/04 05:15:06;;;;;;;8.02;0.90;;;14.40;96.70;;;;;;4939030;28;20043;-79
2021/11/04 05:17:37;;;;;;;7.65;0.80;;;14.30;96.70;;;;;;4943611;28;20079;-78
2021/11/04 05:20:08;;;;;;;5.53;0.70;;;14.30;96.70;;;;;;4932722;28;20070;-80
2021/11/04 05:22:36;;;;;;;3.72;0.65;;;14.30;96.70;;;;;;4926104;29;20047;-79
2021/11/04 05:25:06;;;;;;;5.22;0.82;;;14.20;96.70;;;;;;4916780;28;21125;-80
2021/11/04 05:27:34;;;;;;;10.25;1.17;;;14.20;96.70;;;;;;4932755;28;20047;-79
2021/11/04 05:30:03;;;;;;;4.97;0.80;;;14.30;96.70;;;;;;4940327;28;20032;-79
2021/11/04 05:32:32;;;;;;;4.43;0.98;;;14.30;96.70;;;;;;4940841;28;20048;-79
2021/11/04 05:35:00;;;;;;;6.00;0.80;;;14.30;96.70;;;;;;4936856;28;20039;-80
2021/11/04 05:37:28;;;;;;;5.03;0.80;;;14.40;96.70;;;;;;4944431;28;20040;-78
2021/11/04 05:39:56;;;;;;;5.05;0.90;;;14.40;96.70;;;;;;4935856;28;20122;-79
2021/11/04 05:42:26;;;;;;;6.32;0.90;;;14.40;96.70;;;;;;4935580;28;20059;-79
2021/11/04 05:44:55;;;;;;;8.23;1.08;;;14.40;96.70;;;;;;4917737;29;20056;-80
2021/11/04 05:47:23;;;;;;;6.60;0.98;;;14.50;96.70;;;;;;4934820;28;20055;-80
2021/11/04 05:49:51;;;;;;;6.43;1.10;;;14.50;96.70;;;;;;4940794;28;20094;-79
2021/11/04 05:52:19;;;;;;;6.00;0.65;;;14.50;96.70;;;;;;4935779;28;20518;-79
2021/11/04 05:54:48;;;;;;;6.63;0.90;;;14.50;96.70;;;;;;4941877;28;20063;-80
2021/11/04 05:57:16;;;;;;;7.15;1.10;;;14.50;96.70;;;;;;4934835;28;20620;-79
2021/11/04 05:59:45;;;;;;;6.97;0.90;;;14.50;96.70;;;;;;4921690;28;20546;-76
2021/11/04 06:02:13;;;;;;;7.07;0.80;;;14.50;96.70;;;;;;4933618;28;20051;-75
2021/11/04 06:04:45;;;;;;;4.72;1.00;;;14.50;96.70;;;;;;4932920;28;20493;-76
2021/11/04 06:07:14;;;;;;;4.97;0.60;;;14.40;96.70;;;;;;4942852;28;20182;-75
2021/11/04 06:09:42;;;;;;;6.20;1.00;;;14.50;96.70;;;;;;4949290;28;20051;-76
2021/11/04 06:12:11;;;;;;;5.55;0.90;;;14.50;96.70;;;;;;4919739;29;20055;-76
2021/11/04 06:14:39;;;;;;;6.85;0.98;;;14.60;96.70;;;;;;4940317;28;20073;-76
2021/11/04 06:17:08;;;;;;;5.15;1.13;;;14.60;96.70;;;;;;4935019;28;20039;-76
2021/11/04 06:19:37;;;;;;;10.85;2.13;;;14.70;96.70;;;;;;4932580;28;20500;-76
2021/11/04 06:22:05;;;;;;;7.78;1.27;;;14.80;96.70;;;;;;4940617;28;20039;-75
2021/11/04 06:24:33;;;;;;;6.13;1.33;;;14.80;96.70;;;;;;4948995;28;20497;-76
2021/11/04 06:27:02;;;;;;;5.82;0.88;;;14.80;96.70;;;;;;4917573;28;20072;-76
2021/11/04 06:29:30;;;;;;;7.57;1.08;;;14.80;96.70;;;;;;4932494;28;20097;-75
2021/11/04 06:31:58;;;;;;;8.73;1.05;;;14.90;96.70;;;;;;4940605;28;20123;-75
2021/11/04 06:34:28;;;;;;;5.63;1.45;;;14.90;96.70;;;;;;4934007;28;20044;-76
2021/11/04 06:36:56;;;;;;;7.50;1.08;;;14.90;96.70;;;;;;4943357;28;20126;-77
2021/11/04 06:39:24;;;;;;;6.78;1.65;;;14.90;96.70;;;;;;4941953;28;20079;-76
2021/11/04 06:41:52;;;;;;;7.72;1.55;;;15.00;96.70;;;;;;4937850;28;20489;-76
2021/11/04 06:44:21;;;;;;;10.18;1.70;;;15.00;96.70;;;;;;4942316;28;20200;-76
2021/11/04 06:46:50;;;;;;;7.38;0.88;;;15.00;96.70;;;;;;4923785;28;20055;-76
2021/11/04 06:49:22;;;;;;;6.57;1.10;;;14.90;96.70;;;;;;4939240;28;20086;-76
2021/11/04 06:51:55;;;;;;;7.18;1.20;;;15.00;96.70;;;;;;4937301;28;20413;-82
2021/11/04 06:54:25;;;;;;;8.93;1.05;;;14.90;96.70;;;;;;4939398;28;20050;-80
2021/11/04 06:56:54;;;;;;;7.38;1.30;;;15.00;96.70;;;;;;4940483;28;20046;-78
2021/11/04 06:59:24;;;;;;;6.03;1.20;;;15.00;96.70;;;;;;4925767;28;20102;-78
2021/11/04 07:01:54;;;;;;;7.30;1.50;;;15.00;96.70;;;;;;4938329;28;20142;-80
2021/11/04 07:04:28;;;;;;;7.30;1.30;;;14.90;96.70;;;;;;4922911;28;20071;-78
2021/11/04 07:07:03;;;;;;;8.30;1.13;;;15.00;96.70;;;;;;4936855;28;20058;-76
2021/11/04 07:09:33;;;;;;;6.83;1.00;;;14.90;96.70;;;;;;4940060;28;20061;-75
2021/11/04 07:12:03;;;;;;;5.97;0.95;;;14.90;96.70;;;;;;4932180;28;20295;-76
2021/11/04 07:14:32;;;;;;;4.60;1.00;;;15.00;96.70;;;;;;4924130;28;20062;-85
2021/11/04 07:17:04;;;;;;;4.97;0.90;;;14.90;96.70;;;;;;4930298;28;20046;-77
2021/11/04 07:19:33;;;;;;;5.28;0.70;;;15.00;96.70;;;;;;4938283;28;20083;-77
2021/11/04 07:22:21;;;;;;;10.48;1.00;;;15.00;96.70;;;;;;4937153;28;20444;-77
2021/11/04 07:24:58;;;;;;;7.63;0.90;;;15.10;96.70;;;;;;4937215;28;20039;-77
2021/11/04 07:27:32;;;;;;;4.43;0.70;;;15.20;96.70;;;;;;4932986;28;20777;-76
2021/11/04 07:30:05;;;;;;;4.72;0.85;;;15.20;96.70;;;;;;4939818;28;24190;-78
2021/11/04 07:32:33;;;;;;;5.20;1.00;;;15.30;96.70;;;;;;4940864;28;20097;-78
2021/11/04 07:35:03;;;;;;;6.07;1.10;;;15.40;96.70;;;;;;4940374;28;20830;-77
2021/11/04 07:37:32;;;;;;;7.45;1.23;;;15.50;96.70;;;;;;4924849;28;20458;-78
2021/11/04 07:40:01;;;;;;;4.18;0.90;;;15.50;96.70;;;;;;4947168;28;20044;-77
2021/11/04 07:42:29;;;;;;;4.78;0.90;;;15.60;96.70;;;;;;4944509;28;20485;-78
2021/11/04 07:44:57;;;;;;;7.90;1.38;;;15.70;96.70;;;;;;4937267;28;20565;-78
2021/11/04 07:47:25;;;;;;;6.43;0.88;;;15.90;96.70;;;;;;4935706;28;20331;-78
2021/11/04 07:49:53;;;;;;;5.93;1.08;;;16.00;96.70;;;;;;4936083;28;20039;-78
2021/11/04 07:52:22;;;;;;;10.35;1.70;;;16.10;96.70;;;;;;4933141;28;20518;-78
2021/11/04 07:54:52;;;;;;;7.53;1.23;;;16.20;96.70;;;;;;4942685;28;20053;-78
2021/11/04 07:57:20;;;;;;;6.28;1.20;;;16.20;96.70;;;;;;4934206;28;20680;-78
2021/11/04 07:59:48;;;;;;;11.43;1.27;;;16.30;96.70;;;;;;4937499;28;20067;-77
2021/11/04 08:02:16;;;;;;;9.63;1.48;;;16.30;96.70;;;;;;4940320;28;20057;-77
2021/11/04 08:04:44;;;;;;;8.32;1.27;;;16.40;96.70;;;;;;4943353;28;20161;-77
2021/11/04 08:07:13;;;;;;;7.38;1.02;;;16.40;96.70;;;;;;4919489;28;22055;-77
2021/11/04 08:09:41;;;;;;;7.97;1.45;;;16.40;96.70;;;;;;4943440;28;20093;-77
2021/11/04 08:12:11;;;;;;;8.00;1.15;;;16.40;96.70;;;;;;4942841;28;20062;-77
2021/11/04 08:14:41;;;;;;;8.32;1.15;;;16.40;96.70;;;;;;4929148;28;20523;-77
2021/11/04 08:17:09;;;;;;;6.88;1.20;;;16.40;96.70;;;;;;4917350;28;20480;-77
2021/11/04 08:19:37;;;;;;;10.20;1.15;;;16.50;96.70;;;;;;4952168;28;20503;-77
2021/11/04 08:22:05;;;;;;;9.02;1.40;;;16.50;96.70;;;;;;4940326;28;20043;-78
2021/11/04 08:24:33;;;;;;;6.63;0.95;;;16.50;96.70;;;;;;4933663;28;20446;-78
2021/11/04 08:27:01;;;;;;;6.88;0.98;;;16.50;96.70;;;;;;4936912;28;20047;-77
2021/11/04 08:29:31;;;;;;;9.18;1.58;;;16.60;96.70;;;;;;4936815;28;20471;-77
2021/11/04 08:31:59;;;;;;;8.82;1.55;;;16.70;96.70;;;;;;4937117;28;20131;-77
2021/11/04 08:34:27;;;;;;;7.63;1.35;;;16.70;96.70;;;;;;4944472;28;20044;-78
2021/11/04 08:36:55;;;;;;;6.53;1.05;;;16.80;96.70;;;;;;4924045;29;20080;-77
2021/11/04 08:39:23;;;;;;;4.50;1.27;;;16.80;96.70;;;;;;4939823;28;20066;-77
2021/11/04 08:41:52;;;;;;;6.63;1.30;;;16.90;96.70;;;;;;4939675;28;20058;-77
2021/11/04 08:44:20;;;;;;;7.15;1.42;;;16.90;96.70;;;;;;4929483;28;20468;-77
2021/11/04 08:46:50;;;;;;;4.90;0.95;;;16.90;96.70;;;;;;4938344;28;20484;-77
2021/11/04 08:49:18;;;;;;;8.73;1.27;;;17.00;96.70;;;;;;4921939;28;20051;-77
2021/11/04 08:51:47;;;;;;;9.65;1.15;;;17.00;96.70;;;;;;4922238;28;20481;-77
2021/11/04 08:54:15;;;;;;;6.57;1.63;;;17.00;96.70;;;;;;4936178;28;20071;-77
2021/11/04 08:56:44;;;;;;;5.45;1.63;;;17.10;96.70;;;;;;4945527;28;20051;-77
2021/11/04 08:59:12;;;;;;;6.90;1.20;;;17.00;96.70;;;;;;4936058;28;20055;-76
2021/11/04 09:01:41;;;;;;;5.88;1.35;;;17.00;96.70;;;;;;4928956;28;20099;-77
2021/11/04 09:04:11;;;;;;;10.30;1.83;;;17.00;96.70;;;;;;4934494;28;20445;-77
2021/11/04 09:06:40;;;;;;;9.70;1.58;;;17.10;96.70;;;;;;4934232;28;20476;-77
2021/11/04 09:09:08;;;;;;;7.50;1.17;;;17.00;96.70;;;;;;4943039;28;20568;-77
2021/11/04 09:11:37;;;;;;;7.20;1.50;;;17.00;96.70;;;;;;4926675;28;20476;-78
2021/11/04 09:14:12;;;;;;;5.93;1.42;;;17.00;96.70;;;;;;4926774;28;20529;-78
2021/11/04 09:16:41;;;;;;;5.53;0.93;;;17.00;96.70;;;;;;4927496;28;20043;-77
2021/11/04 09:19:11;;;;;;;11.60;1.40;;;16.90;96.70;;;;;;4923476;29;20040;-77
2021/11/04 09:21:39;;;;;;;5.10;1.00;;;16.80;96.70;;;;;;4948114;28;20585;-78
2021/11/04 09:24:08;;;;;;;5.28;1.23;;;16.80;96.70;;;;;;4931129;28;20383;-77
2021/11/04 09:26:36;;;;;;;9.98;1.10;;;16.80;96.70;;;;;;4922921;28;20056;-78
2021/11/04 09:29:05;;;;;;;8.38;1.00;;;17.00;96.70;;;;;;4934633;28;20058;-77
2021/11/04 09:31:34;;;;;;;8.27;0.93;;;17.10;96.70;;;;;;4941094;28;20362;-77
2021/11/04 09:34:02;;;;;;;8.00;1.70;;;17.00;96.70;;;;;;4937766;28;20047;-78
2021/11/04 09:36:33;;;;;;;6.57;1.38;;;17.00;96.70;;;;;;4927815;28;20441;-78
2021/11/04 09:39:03;;;;;;;3.05;0.75;;;17.00;96.70;;;;;;4928890;28;20792;-78
2021/11/04 09:41:32;;;;;;;6.13;1.17;;;17.10;96.70;;;;;;4930434;28;20047;-78
2021/11/04 09:44:03;;;;;;;2.75;0.85;;;17.20;96.70;;;;;;4930169;28;20143;-77
2021/11/04 09:46:35;;;;;;;4.82;0.80;;;17.30;96.70;;;;;;4936713;28;20043;-77
2021/11/04 09:49:04;;;;;;;4.50;0.80;;;17.30;96.70;;;;;;4935627;28;20055;-77
2021/11/04 09:51:34;;;;;;;5.32;0.82;;;17.30;96.70;;;;;;4943878;28;20078;-77
2021/11/04 09:54:03;;;;;;;6.95;1.13;;;17.40;96.70;;;;;;4920002;29;20070;-77
2021/11/04 09:56:34;;;;;;;5.35;1.00;;;17.60;96.70;;;;;;4927320;28;20081;-77
2021/11/04 09:59:02;;;;;;;6.60;1.10;;;17.70;96.70;;;;;;4936655;28;20091;-77
2021/11/04 10:01:33;;;;;;;3.97;1.20;;;17.80;96.70;;;;;;4935376;28;20532;-76
2021/11/04 10:04:03;;;;;;;4.32;0.85;;;17.80;96.70;;;;;;4939497;28;20372;-76
2021/11/04 10:06:36;;;;;;;3.72;0.73;;;17.80;96.70;;;;;;4931018;28;20047;-77
2021/11/04 10:09:09;;;;;;;6.25;0.93;;;17.70;96.70;;;;;;4939201;28;20051;-77
2021/11/04 10:11:41;;;;;;;3.38;0.93;;;17.60;96.70;;;;;;4935250;28;20043;-77
2021/11/04 10:14:12;;;;;;;4.50;0.80;;;17.60;96.70;;;;;;4940527;28;20090;-77
2021/11/04 10:16:41;;;;;;;4.82;1.17;;;17.60;96.70;;;;;;4931178;28;20047;-76
2021/11/04 10:19:16;;;;;;;5.07;1.00;;;17.50;96.70;;;;;;4931659;28;20044;-77
2021/11/04 10:21:48;;;;;;;4.43;0.70;;;17.50;96.70;;;;;;4935705;28;20075;-77
2021/11/04 10:24:18;;;;;;;3.83;0.80;;;17.40;96.70;;;;;;4942825;28;20135;-77
2021/11/04 10:26:53;;;;;;;2.67;0.70;;;17.40;96.70;;;;;;4930625;28;20687;-77
2021/11/04 10:29:23;;;;;;;4.15;0.65;;;17.50;96.70;;;;;;4944616;28;20043;-77
2021/11/04 10:31:55;;;;;;;4.72;0.77;;;17.40;96.70;;;;;;4935343;28;20074;-77
2021/11/04 10:34:28;;;;;;;4.00;1.08;;;17.40;96.70;;;;;;4920292;28;20056;-77
2021/11/04 10:37:09;;;;;;;5.63;0.65;;;17.50;96.70;;;;;;4935640;28;20043;-77
2021/11/04 10:39:38;;;;;;;7.45;1.25;;;17.40;96.70;;;;;;4923077;28;20059;-78
2021/11/04 10:42:07;;;;;;;5.18;0.90;;;17.40;96.70;;;;;;4935554;28;20035;-78
2021/11/04 10:44:36;;;;;;;7.47;1.30;;;17.50;96.70;;;;;;4940674;28;20043;-77
2021/11/04 10:47:05;;;;;;;4.80;1.15;;;17.50;96.70;;;;;;4939294;28;20056;-77
2021/11/04 10:49:41;;;;;;;5.28;1.00;;;17.50;96.70;;;;;;4938672;28;20082;-78
2021/11/04 10:52:13;;;;;;;5.60;1.20;;;17.40;96.70;;;;;;4924338;28;20051;-79
2021/11/04 10:54:43;;;;;;;6.47;1.13;;;17.50;96.70;;;;;;4920660;28;20078;-78
2021/11/04 10:57:11;;;;;;;8.10;1.23;;;17.50;96.70;;;;;;4925007;28;20099;-78
2021/11/04 10:59:46;;;;;;;7.10;1.40;;;17.50;96.70;;;;;;4945404;28;20124;-80
2021/11/04 11:02:17;;;;;;;6.47;1.33;;;17.60;96.70;;;;;;4943885;28;20412;-77
2021/11/04 11:04:46;;;;;;;4.32;1.25;;;17.70;96.70;;;;;;4931929;28;20579;-78
2021/11/04 11:07:16;;;;;;;7.78;0.90;;;17.70;96.70;;;;;;4944889;28;20057;-78
2021/11/04 11:09:45;;;;;;;7.60;1.38;;;17.70;96.70;;;;;;4938287;28;20050;-77
2021/11/04 11:12:13;;;;;;;4.40;0.77;;;17.70;96.70;;;;;;4941114;28;20055;-77
2021/11/04 11:14:42;;;;;;;6.35;1.08;;;17.60;96.70;;;;;;4932611;28;20090;-78
2021/11/04 11:17:10;;;;;;;5.82;1.10;;;17.60;96.70;;;;;;4939337;28;20040;-77
2021/11/04 11:19:42;;;;;;;7.55;1.48;;;17.70;96.70;;;;;;4938823;28;20051;-77
2021/11/04 11:22:13;;;;;;;4.05;0.90;;;17.80;96.70;;;;;;4939213;28;20054;-81
2021/11/04 11:24:44;;;;;;;6.78;0.93;;;17.90;96.70;;;;;;4922088;28;20449;-78
2021/11/04 11:27:16;;;;;;;6.75;1.10;;;18.00;96.70;;;;;;4935032;28;20401;-74
2021/11/04 11:29:46;;;;;;;3.75;0.75;;;18.10;96.70;;;;;;4938258;28;20466;-74
2021/11/04 11:32:20;;;;;;;6.70;0.75;;;18.10;96.70;;;;;;4946618;28;20099;-75
2021/11/04 11:34:49;;;;;;;6.18;1.00;;;18.10;96.70;;;;;;4938999;28;20485;-76
2021/11/04 11:37:20;;;;;;;7.00;1.00;;;18.00;96.70;;;;;;4938263;28;20049;-76
2021/11/04 11:40:11;;;;;;;5.65;1.10;;;18.00;96.70;;;;;;4941198;28;20126;-75
2021/11/04 11:42:56;;;;;;;7.67;1.27;;;17.90;96.70;;;;;;4935908;28;20937;-76
2021/11/04 11:45:27;;;;;;;3.60;1.02;;;18.10;96.70;;;;;;4933592;28;20066;-75
2021/11/04 11:47:56;;;;;;;5.05;0.80;;;18.30;96.70;;;;;;4932152;28;20052;-75
2021/11/04 11:50:31;;;;;;;4.22;1.15;;;18.30;96.70;;;;;;4923394;28;20040;-75
2021/11/04 11:53:02;;;;;;;3.08;0.70;;;18.20;96.70;;;;;;4935336;28;20035;-75
2021/11/04 11:55:38;;;;;;;5.95;0.73;;;18.10;96.70;;;;;;4933828;28;20042;-75
2021/11/04 11:58:28;;;;;;;4.75;0.93;;;18.10;96.70;;;;;;4918555;28;20051;-75
2021/11/04 12:01:03;;;;;;;6.80;0.75;;;18.00;96.70;;;;;;4929123;28;20044;-75
2021/11/04 12:03:52;;;;;;;4.95;0.95;;;17.90;96.70;;;;;;4936528;28;20048;-76
2021/11/04 12:06:54;;;;;;;6.80;1.00;;;17.90;96.70;;;;;;4931848;28;20060;-75
2021/11/04 12:09:49;;;;;;;3.33;0.85;;;17.90;96.70;;;;;;4930562;28;20059;-75
2021/11/04 12:12:42;;;;;;;3.75;0.95;;;17.80;96.70;;;;;;4926482;28;20047;-76
2021/11/04 12:15:11;;;;;;;2.58;0.93;;;17.90;96.70;;;;;;4928949;28;20123;-76
2021/11/04 12:17:39;;;;;;;3.00;1.05;;;17.90;96.70;;;;;;4920886;28;20046;-76
2021/11/04 12:20:08;;;;;;;8.18;0.63;;;17.90;96.70;;;;;;4935857;28;20129;-76
2021/11/04 12:22:41;;;;;;;3.42;0.90;;;17.80;96.70;;;;;;4934397;28;20044;-75
2021/11/04 12:25:12;;;;;;;3.72;0.90;;;17.80;96.70;;;;;;4936303;28;20074;-76
2021/11/04 12:27:44;;;;;;;5.85;0.70;;;17.80;96.70;;;;;;4940214;28;20047;-75
2021/11/04 12:30:20;;;;;;;4.97;0.88;;;17.90;96.70;;;;;;4920070;28;20050;-75
2021/11/04 12:33:00;;;;;;;2.80;0.57;;;17.90;96.70;;;;;;4929210;28;20519;-75
2021/11/04 12:35:41;;;;;;;5.10;0.93;;;17.80;96.70;;;;;;4918992;28;20710;-75
2021/11/04 12:38:09;;;;;;;5.68;0.80;;;17.80;96.70;;;;;;4932167;28;20383;-75
2021/11/04 12:40:38;;;;;;;5.53;0.95;;;17.80;96.70;;;;;;4936754;28;20061;-75
2021/11/04 12:43:10;;;;;;;3.85;0.98;;;17.80;96.70;;;;;;4925413;28;20058;-75
2021/11/04 12:45:45;;;;;;;3.63;0.77;;;17.80;96.70;;;;;;4934923;28;20047;-75
2021/11/04 12:48:14;;;;;;;6.45;1.10;;;17.80;96.70;;;;;;4933135;28;20107;-75
2021/11/04 12:50:57;;;;;;;4.95;0.88;;;17.80;96.70;;;;;;4935521;28;20047;-75
2021/11/04 12:53:26;;;;;;;6.80;1.20;;;17.90;96.70;;;;;;4945021;28;20421;-75
2021/11/04 12:55:54;;;;;;;6.93;0.85;;;17.90;96.70;;;;;;4935890;28;20087;-75
2021/11/04 12:58:24;;;;;;;4.18;1.00;;;17.90;96.70;;;;;;4938422;28;20048;-75
2021/11/04 13:01:00;;;;;;;5.15;0.68;;;17.90;96.70;;;;;;4934162;28;20046;-75